Time,TemperatureF,DewpointF,PressureIn,WindDirection,WindDirectionDegrees,WindSpeedMPH,WindSpeedGustMPH,Humidity,HourlyPrecipIn,Conditions,Clouds,dailyrainin,SoftwareType,DateUTC
2013-06-18 15:43:00,83.0,74.0,29.96,SW,219,2.0,3.0,75,0.00,,,-99.99,,2013-06-18 19:43:00,
2013-06-18 15:53:00,82.0,74.0,29.96,South,187,3.0,5.0,77,0.00,,,-99.99,,2013-06-18 19:53:00,
2013-06-18 16:02:00,82.0,74.0,29.96,WSW,238,1.0,2.0,77,0.00,,,0.57,,2013-06-18 20:02:00,
2013-06-18 16:11:00,83.0,75.0,29.96,NW,307,3.0,4.0,78,0.00,,,0.57,,2013-06-18 20:11:00,
2013-06-18 16:23:00,83.0,75.0,29.96,SSW,210,3.0,5.0,77,0.00,,,0.57,,2013-06-18 20:23:00,
2013-06-18 16:33:00,82.0,75.0,29.95,SSW,210,4.0,9.0,79,0.00,,,0.56,,2013-06-18 20:33:00,
2013-06-18 16:43:00,81.0,74.0,29.95,SW,217,3.0,4.0,80,0.00,,,0.55,,2013-06-18 20:43:00,
2013-06-18 16:52:00,82.0,74.0,29.95,South,180,3.0,4.0,77,0.00,,,0.55,,2013-06-18 20:52:00,
2013-06-18 17:02:00,83.0,75.0,29.94,SSW,212,3.0,5.0,77,0.00,,,0.55,,2013-06-18 21:02:00,
2013-06-18 17:11:00,83.0,75.0,29.94,WSW,245,2.0,4.0,76,0.00,,,0.54,,2013-06-18 21:11:00,
2013-06-18 17:23:00,82.0,76.0,29.95,ENE,58,4.0,7.0,81,0.00,,,0.54,,2013-06-18 21:23:00,
2013-06-18 17:33:00,82.0,73.0,29.96,ESE,115,2.0,4.0,74,0.00,,,0.54,,2013-06-18 21:33:00,
2013-06-18 17:43:00,81.0,71.0,29.96,ENE,60,4.0,8.0,71,0.00,,,0.54,,2013-06-18 21:43:00,
2013-06-18 17:52:00,80.0,72.0,29.96,North,8,3.0,7.0,76,0.00,,,0.54,,2013-06-18 21:52:00,
2013-06-18 18:02:00,80.0,72.0,29.96,NE,41,2.0,3.0,76,0.00,,,0.54,,2013-06-18 22:02:00,
2013-06-18 18:11:00,80.0,71.0,29.96,NNE,18,3.0,5.0,73,0.00,,,0.54,,2013-06-18 22:11:00,
2013-06-18 18:22:00,80.0,71.0,29.96,North,356,3.0,4.0,74,0.00,,,0.54,,2013-06-18 22:22:00,
2013-06-18 18:34:00,80.0,71.0,29.96,NNE,27,4.0,6.0,74,0.00,,,0.54,,2013-06-18 22:34:00,
2013-06-18 18:43:00,80.0,71.0,29.96,NE,42,2.0,4.0,75,0.00,,,0.54,,2013-06-18 22:43:00,
2013-06-18 18:53:00,80.0,71.0,29.96,NNE,20,1.0,2.0,75,0.00,,,0.54,,2013-06-18 22:53:00,
2013-06-18 19:02:00,80.0,71.0,29.96,North,350,1.0,2.0,74,0.00,,,0.54,,2013-06-18 23:02:00,
2013-06-18 19:11:00,79.0,70.0,29.97,WNW,302,3.0,5.0,74,0.00,,,0.54,,2013-06-18 23:11:00,
2013-06-18 19:23:00,79.0,70.0,29.97,NNE,14,4.0,6.0,75,0.00,,,0.54,,2013-06-18 23:23:00,
2013-06-18 19:36:00,79.0,70.0,29.97,WNW,302,2.0,3.0,74,0.00,,,0.54,,2013-06-18 23:36:00,
2013-06-18 19:46:00,78.0,70.0,29.97,ENE,72,1.0,3.0,77,0.00,,,0.54,,2013-06-18 23:46:00,
2013-06-18 19:53:00,78.0,71.0,29.98,NW,308,2.0,4.0,80,0.00,,,0.54,,2013-06-18 23:53:00,
2013-06-18 20:01:00,77.0,70.0,29.98,ENE,63,3.0,5.0,79,0.00,,,0.54,,2013-06-19 00:01:00,
2013-06-18 20:11:00,77.0,70.0,29.97,NE,51,2.0,3.0,79,0.00,,,0.54,,2013-06-19 00:11:00,
2013-06-18 20:22:00,76.0,70.0,29.98,ENE,60,2.0,9.0,82,0.00,,,0.54,,2013-06-19 00:22:00,
2013-06-18 20:33:00,76.0,70.0,29.98,WSW,242,2.0,3.0,82,0.00,,,0.54,,2013-06-19 00:33:00,
2013-06-18 20:43:00,76.0,70.0,29.98,ENE,63,1.0,1.0,82,0.00,,,0.54,,2013-06-19 00:43:00,
2013-06-18 20:53:00,75.0,70.0,29.99,SSE,156,1.0,2.0,84,0.00,,,0.54,,2013-06-19 00:53:00,
2013-06-18 21:01:00,74.0,67.0,29.99,East,91,3.0,5.0,80,0.00,,,0.54,,2013-06-19 01:01:00,
2013-06-18 21:11:00,74.0,69.0,29.99,East,89,1.0,2.0,84,0.00,,,0.54,,2013-06-19 01:11:00,
2013-06-18 21:22:00,74.0,69.0,29.99,East,89,1.0,2.0,84,0.00,,,0.54,,2013-06-19 01:22:00,
2013-06-18 21:32:00,73.0,70.0,30.00,WSW,255,1.0,1.0,90,0.00,,,0.54,,2013-06-19 01:32:00,
2013-06-18 21:43:00,73.0,70.0,30.00,WSW,255,1.0,1.0,90,0.00,,,0.54,,2013-06-19 01:43:00,
2013-06-18 21:53:00,72.0,69.0,30.01,West,274,2.0,3.0,89,0.00,,,0.54,,2013-06-19 01:53:00,
2013-06-18 22:01:00,72.0,69.0,30.01,West,274,2.0,3.0,89,0.00,,,0.54,,2013-06-19 02:01:00,
2013-06-18 22:11:00,72.0,68.0,30.01,SW,236,1.0,2.0,87,0.00,,,0.54,,2013-06-19 02:11:00,
2013-06-18 22:21:00,72.0,68.0,30.01,SW,236,1.0,2.0,87,0.00,,,0.54,,2013-06-19 02:21:00,
2013-06-18 22:32:00,72.0,68.0,30.01,SW,236,1.0,2.0,87,0.00,,,0.54,,2013-06-19 02:32:00,
2013-06-18 22:42:00,70.0,68.0,30.04,North,11,1.0,1.0,95,0.00,,,0.16,,2013-06-19 02:42:00,
2013-06-18 22:51:00,70.0,68.0,30.04,North,11,1.0,1.0,95,0.00,,,0.16,,2013-06-19 02:51:00,
2013-06-18 23:01:00,70.0,68.0,30.04,NNW,328,2.0,3.0,93,0.00,,,0.15,,2013-06-19 03:01:00,
2013-06-18 23:11:00,70.0,67.0,30.04,NNW,328,2.0,2.0,89,0.00,,,0.13,,2013-06-19 03:11:00,
2013-06-18 23:22:00,70.0,67.0,30.04,NNW,328,2.0,2.0,89,0.00,,,0.13,,2013-06-19 03:22:00,
2013-06-18 23:33:00,70.0,66.0,30.05,WSW,240,0.0,0.0,86,0.00,,,0.09,,2013-06-19 03:33:00,
2013-06-18 23:42:00,70.0,66.0,30.05,WSW,240,0.0,0.0,86,0.00,,,0.08,,2013-06-19 03:42:00,
2013-06-18 23:52:00,70.0,67.0,30.06,NNW,345,0.0,0.0,91,0.00,,,0.07,,2013-06-19 03:52:00,